createdAt,value
2022-08-14T00:00:34.621Z,6.15
2022-08-14T00:03:43.519Z,5.95
2022-08-14T00:06:48.876Z,5.28
2022-08-14T00:10:49.168Z,5.83
2022-08-14T00:13:08.841Z,5.53
2022-08-14T00:16:44.269Z,5.72
2022-08-14T00:19:24.468Z,5.50
2022-08-14T00:22:57.079Z,5.95
2022-08-14T00:25:42.408Z,5.53
2022-08-14T00:28:46.307Z,5.55
2022-08-14T00:31:53.902Z,6.92
2022-08-14T00:35:00.561Z,5.37
2022-08-14T00:38:07.057Z,5.25
2022-08-14T00:41:14.078Z,5.75
2022-08-14T00:44:21.536Z,5.45
2022-08-14T00:47:30.821Z,5.67
2022-08-14T00:50:37.917Z,5.30
2022-08-14T00:53:43.825Z,5.20
2022-08-14T00:56:50.256Z,6.10
2022-08-14T00:59:56.751Z,6.03
2022-08-14T01:03:03.277Z,5.33
2022-08-14T01:06:08.410Z,4.90
2022-08-14T01:09:15.946Z,6.08
2022-08-14T01:12:26.979Z,4.67
2022-08-14T01:15:31.798Z,5.85
2022-08-14T01:19:01.286Z,5.95
2022-08-14T01:22:01.406Z,6.08
2022-08-14T01:25:08.009Z,5.15
2022-08-14T01:28:46.440Z,5.40
2022-08-14T01:31:29.255Z,5.50
2022-08-14T01:35:17.357Z,5.42
2022-08-14T01:37:44.004Z,5.22
2022-08-14T01:40:50.207Z,5.67
2022-08-14T01:44:32.572Z,5.33
2022-08-14T01:47:22.489Z,5.28
2022-08-14T01:50:29.569Z,5.08
2022-08-14T01:53:36.340Z,5.50
2022-08-14T01:56:46.639Z,5.33
2022-08-14T01:59:53.625Z,5.10
2022-08-14T02:02:59.289Z,4.90
2022-08-14T02:06:32.425Z,4.50
2022-08-14T02:09:19.204Z,5.40
2022-08-14T02:12:26.331Z,5.72
2022-08-14T02:15:31.816Z,4.55
2022-08-14T02:18:37.525Z,5.90
2022-08-14T02:21:48.720Z,5.75
2022-08-14T02:24:52.130Z,5.28
2022-08-14T02:28:23.723Z,5.03
2022-08-14T02:31:05.648Z,5.90
2022-08-14T02:34:26.131Z,5.20
2022-08-14T02:37:37.455Z,4.37
2022-08-14T02:40:37.448Z,4.87
2022-08-14T02:43:48.346Z,5.47
2022-08-14T02:46:54.744Z,5.95
2022-08-14T02:50:02.364Z,5.53
2022-08-14T02:53:08.623Z,5.08
2022-08-14T02:56:30.480Z,5.33
2022-08-14T02:59:17.022Z,5.33
2022-08-14T03:02:49.500Z,4.95
2022-08-14T03:05:26.133Z,5.25
2022-08-14T03:08:20.428Z,5.08
2022-08-14T03:11:17.820Z,5.37
2022-08-14T03:14:04.976Z,5.30
2022-08-14T03:16:56.966Z,4.87
2022-08-14T03:19:43.542Z,5.42
2022-08-14T03:22:36.687Z,6.25
2022-08-14T03:25:31.686Z,5.42
2022-08-14T03:28:39.424Z,4.87
2022-08-14T03:31:47.547Z,5.53
2022-08-14T03:34:55.450Z,4.83
2022-08-14T03:39:12.897Z,5.20
2022-08-14T03:41:09.013Z,5.15
2022-08-14T03:45:25.240Z,4.97
2022-08-14T03:47:28.005Z,5.67
2022-08-14T03:50:34.970Z,5.55
2022-08-14T03:53:42.549Z,5.22
2022-08-14T03:56:51.503Z,5.37
2022-08-14T03:59:59.561Z,4.87
2022-08-14T04:03:07.221Z,6.22
2022-08-14T04:06:06.244Z,4.92
2022-08-14T04:08:53.447Z,4.62
2022-08-14T04:11:47.808Z,5.10
2022-08-14T04:14:37.105Z,4.80
2022-08-14T04:17:28.612Z,5.22
2022-08-14T04:20:25.686Z,5.10
2022-08-14T04:23:18.439Z,5.00
2022-08-14T04:26:08.516Z,5.62
2022-08-14T04:29:15.032Z,4.72
2022-08-14T04:32:57.475Z,5.53
2022-08-14T04:35:24.508Z,5.40
2022-08-14T04:38:49.412Z,5.25
2022-08-14T04:42:14.193Z,4.87
2022-08-14T04:45:22.254Z,4.72
2022-08-14T04:48:39.434Z,4.40
2022-08-14T04:51:46.673Z,4.55
2022-08-14T04:54:46.024Z,4.80
2022-08-14T04:57:54.738Z,5.45
2022-08-14T05:01:01.200Z,5.35
2022-08-14T05:04:07.123Z,5.03
2022-08-14T05:07:13.619Z,5.15
2022-08-14T05:10:22.109Z,4.60
2022-08-14T05:13:24.719Z,4.72
2022-08-14T05:16:32.055Z,5.92
2022-08-14T05:19:44.669Z,5.42
2022-08-14T05:22:42.049Z,5.15
2022-08-14T05:25:47.416Z,4.42
2022-08-14T05:28:56.250Z,5.08
2022-08-14T05:32:04.335Z,5.55
2022-08-14T05:35:10.473Z,5.22
2022-08-14T05:38:31.378Z,5.08
2022-08-14T05:41:52.640Z,4.85
2022-08-14T05:44:35.020Z,5.05
2022-08-14T05:47:42.138Z,5.55
2022-08-14T05:50:50.333Z,4.50
2022-08-14T05:54:01.476Z,5.20
2022-08-14T05:56:57.017Z,5.35
2022-08-14T05:59:50.555Z,5.33
2022-08-14T06:02:58.190Z,5.33
2022-08-14T06:06:08.256Z,5.33
2022-08-14T06:09:17.372Z,4.78
2022-08-14T06:12:55.902Z,5.62
2022-08-14T06:15:32.658Z,4.83
2022-08-14T06:18:38.005Z,4.53
2022-08-14T06:21:44.840Z,5.55
2022-08-14T06:24:51.038Z,5.28
2022-08-14T06:28:03.849Z,5.28
2022-08-14T06:31:10.808Z,5.37
2022-08-14T06:35:03.560Z,5.00
2022-08-14T06:37:24.879Z,4.97
2022-08-14T06:40:34.212Z,4.62
2022-08-14T06:43:45.290Z,4.67
2022-08-14T06:46:49.428Z,4.85
2022-08-14T06:49:58.134Z,4.95
2022-08-14T06:53:03.530Z,5.40
2022-08-14T06:56:11.405Z,5.65
2022-08-14T06:59:20.003Z,4.80
2022-08-14T07:02:43.580Z,4.80
2022-08-14T07:05:55.650Z,4.05
2022-08-14T07:08:59.198Z,4.97
2022-08-14T07:12:07.895Z,4.35
2022-08-14T07:15:13.855Z,5.33
2022-08-14T07:18:19.849Z,4.75
2022-08-14T07:21:26.694Z,5.17
2022-08-14T07:24:32.740Z,4.75
2022-08-14T07:27:38.405Z,4.62
2022-08-14T07:30:50.661Z,4.40
2022-08-14T07:34:00.358Z,5.30
2022-08-14T07:37:07.007Z,4.62
2022-08-14T07:40:12.274Z,4.87
2022-08-14T07:43:20.362Z,5.15
2022-08-14T07:46:30.803Z,4.72
2022-08-14T07:52:43.588Z,6.37
2022-08-14T07:56:08.859Z,4.53
2022-08-14T07:58:58.290Z,4.12
2022-08-14T08:02:04.425Z,4.35
2022-08-14T08:05:10.999Z,4.92
2022-08-14T08:08:26.877Z,4.97
2022-08-14T08:11:26.596Z,4.92
2022-08-14T08:14:33.222Z,4.15
2022-08-14T08:17:42.499Z,4.83
2022-08-14T08:20:52.143Z,4.83
2022-08-14T08:23:57.548Z,4.78
2022-08-14T08:27:03.375Z,4.72
2022-08-14T08:30:20.217Z,3.87
2022-08-14T08:33:24.717Z,5.30
2022-08-14T08:36:31.357Z,4.85
2022-08-14T08:40:01.120Z,4.58
2022-08-14T08:42:44.952Z,4.65
2022-08-14T08:45:51.862Z,4.60
2022-08-14T08:49:05.889Z,4.53
2022-08-14T08:52:25.294Z,4.80
2022-08-14T08:55:24.749Z,4.50
2022-08-14T08:58:33.007Z,5.22
2022-08-14T09:01:45.855Z,4.92
2022-08-14T09:04:57.709Z,4.80
2022-08-14T09:08:03.565Z,4.87
2022-08-14T09:11:19.363Z,5.50
2022-08-14T09:14:16.772Z,4.90
2022-08-14T09:17:18.219Z,5.75
2022-08-14T09:20:30.652Z,4.58
2022-08-14T09:23:35.092Z,4.97
2022-08-14T09:26:40.382Z,5.17
2022-08-14T09:29:54.158Z,5.20
2022-08-14T09:33:22.751Z,5.28
2022-08-14T09:36:53.359Z,5.00
2022-08-14T09:40:20.877Z,5.15
2022-08-14T09:43:44.362Z,5.00
2022-08-14T09:46:37.980Z,5.65
2022-08-14T09:49:53.422Z,5.30
2022-08-14T09:53:18.397Z,5.30
2022-08-14T09:56:11.546Z,5.17
2022-08-14T09:59:32.164Z,4.95
2022-08-14T10:02:45.668Z,5.28
2022-08-14T10:05:52.241Z,4.70
2022-08-14T10:09:12.056Z,5.42
2022-08-14T10:12:18.985Z,5.22
2022-08-14T10:15:37.470Z,4.95
2022-08-14T10:18:42.522Z,5.22
2022-08-14T10:23:13.738Z,5.87
2022-08-14T10:24:59.978Z,5.65
2022-08-14T10:28:39.600Z,6.35
2022-08-14T10:31:40.350Z,4.65
2022-08-14T10:34:52.480Z,4.95
2022-08-14T10:38:07.228Z,4.97
2022-08-14T10:41:31.884Z,5.40
2022-08-14T10:44:36.403Z,5.35
2022-08-14T10:48:08.834Z,4.92
2022-08-14T10:50:59.067Z,5.45
2022-08-14T10:54:16.531Z,4.65
2022-08-14T10:57:43.337Z,4.35
2022-08-14T11:00:49.264Z,4.60
2022-08-14T11:03:57.744Z,4.83
2022-08-14T11:07:11.329Z,4.75
2022-08-14T11:10:22.652Z,5.42
2022-08-14T11:13:38.391Z,4.72
2022-08-14T11:16:53.317Z,4.75
2022-08-14T11:23:01.778Z,5.00
2022-08-14T11:26:08.689Z,4.50
2022-08-14T11:29:16.293Z,4.53
2022-08-14T11:32:22.705Z,4.67
2022-08-14T11:35:37.028Z,4.75
2022-08-14T11:38:38.923Z,5.12
2022-08-14T11:41:56.028Z,5.12
2022-08-14T11:44:56.492Z,4.97
2022-08-14T11:48:12.556Z,4.95
2022-08-14T11:51:09.821Z,4.83
2022-08-14T11:54:20.140Z,5.40
2022-08-14T11:57:30.930Z,5.35
2022-08-14T12:00:45.979Z,5.00
2022-08-14T12:03:57.632Z,4.90
2022-08-14T12:07:09.900Z,4.90
2022-08-14T12:10:26.299Z,4.47
2022-08-14T12:13:34.853Z,4.67
2022-08-14T12:16:42.512Z,4.55
2022-08-14T12:20:05.095Z,5.10
2022-08-14T12:23:11.386Z,4.83
2022-08-14T12:26:39.095Z,4.90
2022-08-14T12:29:32.203Z,4.60
2022-08-14T12:32:39.756Z,5.60
2022-08-14T12:35:58.296Z,4.90
2022-08-14T12:39:04.274Z,5.03
2022-08-14T12:42:34.618Z,5.30
2022-08-14T12:45:26.742Z,5.20
2022-08-14T12:48:35.612Z,6.00
2022-08-14T12:51:42.830Z,4.90
2022-08-14T12:55:01.411Z,5.10
2022-08-14T12:58:01.978Z,4.62
2022-08-14T13:01:16.803Z,5.50
2022-08-14T13:04:28.444Z,5.35
2022-08-14T13:07:33.406Z,5.10
2022-08-14T13:10:46.589Z,5.47
2022-08-14T13:13:47.264Z,5.28
2022-08-14T13:16:58.482Z,5.03
2022-08-14T13:20:10.250Z,5.30
2022-08-14T13:23:14.805Z,5.22
2022-08-14T13:26:22.375Z,4.75
2022-08-14T13:29:31.458Z,5.65
2022-08-14T13:32:39.645Z,4.85
2022-08-14T13:35:45.386Z,5.65
2022-08-14T13:38:52.319Z,5.95
2022-08-14T13:41:59.058Z,6.50
2022-08-14T13:45:00.468Z,8.45
2022-08-14T13:48:06.058Z,7.30
2022-08-14T13:51:11.320Z,6.87
2022-08-14T13:54:18.866Z,6.65
2022-08-14T13:57:30.235Z,7.25
2022-08-14T14:00:52.806Z,7.67
2022-08-14T14:03:44.357Z,7.30
2022-08-14T14:06:51.130Z,7.03
2022-08-14T14:10:01.186Z,8.08
2022-08-14T14:13:08.320Z,7.42
2022-08-14T14:16:21.791Z,7.78
2022-08-14T14:19:22.490Z,7.42
2022-08-14T14:22:35.755Z,8.20
2022-08-14T14:25:46.049Z,7.33
2022-08-14T14:28:45.854Z,8.58
2022-08-14T14:31:51.228Z,7.53
2022-08-14T14:34:49.900Z,6.97
2022-08-14T14:37:57.505Z,7.45
2022-08-14T14:41:05.718Z,7.00
2022-08-14T14:44:15.928Z,7.07
2022-08-14T14:47:24.460Z,7.37
2022-08-14T14:50:30.676Z,8.55
2022-08-14T14:53:39.691Z,8.08
2022-08-14T14:56:49.689Z,8.83
2022-08-14T14:59:52.955Z,7.17
2022-08-14T15:03:03.671Z,7.45
2022-08-14T15:06:10.358Z,7.03
2022-08-14T15:09:17.883Z,7.37
2022-08-14T15:12:55.681Z,7.03
2022-08-14T15:18:41.927Z,6.85
2022-08-14T15:21:46.389Z,5.83
2022-08-14T15:24:53.061Z,5.45
2022-08-14T15:27:58.725Z,6.15
2022-08-14T15:30:59.393Z,4.87
2022-08-14T15:34:43.496Z,5.25
2022-08-14T15:36:58.235Z,5.50
2022-08-14T15:39:44.568Z,5.22
2022-08-14T15:42:45.225Z,5.05
2022-08-14T15:45:50.774Z,5.15
2022-08-14T15:48:58.165Z,4.35
2022-08-14T15:52:06.087Z,4.20
2022-08-14T15:55:15.061Z,4.78
2022-08-14T15:58:22.278Z,4.20
2022-08-14T16:01:52.887Z,4.28
2022-08-14T16:04:35.832Z,4.33
2022-08-14T16:07:43.428Z,4.03
2022-08-14T16:10:53.288Z,4.20
2022-08-14T16:13:59.587Z,5.12
2022-08-14T16:17:08.627Z,4.35
2022-08-14T16:30:49.499Z,4.47
2022-08-14T16:34:00.015Z,4.75
2022-08-14T16:36:59.445Z,5.53
2022-08-14T16:40:23.868Z,4.67
2022-08-14T16:43:12.906Z,4.53
2022-08-14T16:46:00.877Z,4.92
2022-08-14T16:49:07.414Z,5.08
2022-08-14T16:52:26.426Z,4.95
2022-08-14T16:55:30.163Z,4.42
2022-08-14T16:58:30.960Z,4.45
2022-08-14T17:01:37.752Z,3.67
2022-08-14T17:04:45.343Z,3.90
2022-08-14T17:07:53.312Z,4.30
2022-08-14T17:11:10.004Z,3.62
2022-08-14T17:14:10.937Z,4.22
2022-08-14T17:17:16.365Z,5.05
2022-08-14T17:20:39.390Z,4.03
2022-08-14T17:23:34.764Z,3.65
2022-08-14T17:27:04.139Z,4.22
2022-08-14T17:30:32.422Z,4.33
2022-08-14T17:33:27.049Z,4.67
2022-08-14T17:36:36.611Z,5.20
2022-08-14T17:39:42.022Z,5.22
2022-08-14T17:43:06.608Z,4.97
2022-08-14T17:46:17.229Z,5.17
2022-08-14T17:49:25.833Z,5.50
2022-08-14T17:52:40.636Z,5.40
2022-08-14T17:56:01.718Z,6.10
2022-08-14T17:58:50.531Z,5.67
2022-08-14T18:01:56.636Z,6.28
2022-08-14T18:05:03.248Z,5.22
2022-08-14T18:08:31.982Z,6.45
2022-08-14T18:11:19.894Z,6.80
2022-08-14T18:14:32.047Z,7.15
2022-08-14T18:17:35.278Z,7.70
2022-08-14T18:21:23.472Z,7.35
2022-08-14T18:23:51.681Z,7.55
2022-08-14T18:27:01.833Z,7.60
2022-08-14T18:30:32.108Z,7.92
2022-08-14T18:33:33.160Z,8.03
2022-08-14T18:37:17.628Z,8.48
2022-08-14T18:40:38.282Z,7.78
2022-08-14T18:44:00.821Z,8.50
2022-08-14T18:47:32.634Z,8.15
2022-08-14T18:50:41.428Z,8.07
2022-08-14T18:53:55.751Z,8.38
2022-08-14T18:57:20.167Z,7.83
2022-08-14T19:00:51.376Z,6.92
2022-08-14T19:04:01.815Z,7.92
2022-08-14T19:07:08.935Z,7.78
2022-08-14T19:10:22.874Z,7.62
2022-08-14T19:13:48.205Z,7.22
2022-08-14T19:16:53.580Z,6.67
2022-08-14T19:19:53.157Z,6.78
2022-08-14T19:23:00.772Z,7.08
2022-08-14T19:26:34.083Z,6.62
2022-08-14T19:29:41.102Z,6.58
2022-08-14T19:32:53.029Z,6.00
2022-08-14T19:36:00.419Z,6.90
2022-08-14T19:39:13.966Z,6.37
2022-08-14T19:42:27.872Z,6.08
2022-08-14T19:45:30.076Z,6.62
2022-08-14T19:48:37.476Z,6.22
2022-08-14T19:51:43.897Z,6.00
2022-08-14T19:54:51.416Z,6.58
2022-08-14T19:57:58.785Z,6.08
2022-08-14T20:01:11.503Z,6.20
2022-08-14T20:04:45.389Z,5.80
2022-08-14T20:07:58.863Z,6.03
2022-08-14T20:11:05.638Z,5.78
2022-08-14T20:13:54.151Z,5.65
2022-08-14T20:17:06.726Z,5.67
2022-08-14T20:20:13.364Z,5.25
2022-08-14T20:23:37.875Z,5.00
2022-08-14T20:26:39.217Z,5.15
2022-08-14T20:29:46.945Z,5.12
2022-08-14T20:33:07.515Z,4.95
2022-08-14T20:36:14.031Z,4.55
2022-08-14T20:39:24.913Z,5.78
2022-08-14T20:42:52.735Z,5.30
2022-08-14T20:46:05.462Z,5.50
2022-08-14T20:49:25.465Z,4.90
2022-08-14T20:52:31.654Z,5.35
2022-08-14T20:55:41.805Z,5.25
2022-08-14T20:58:54.713Z,5.15
2022-08-14T21:02:28.747Z,4.85
2022-08-14T21:05:19.371Z,5.50
2022-08-14T21:08:25.764Z,4.28
2022-08-14T21:11:35.044Z,5.28
2022-08-14T21:14:46.508Z,4.90
2022-08-14T21:17:48.474Z,4.92
2022-08-14T21:20:55.651Z,4.90
2022-08-14T21:24:07.985Z,4.50
2022-08-14T21:27:20.133Z,5.50
2022-08-14T21:30:21.295Z,4.50
2022-08-14T21:33:29.731Z,4.67
2022-08-14T21:36:37.195Z,4.20
2022-08-14T21:39:43.648Z,4.10
2022-08-14T21:42:48.998Z,4.37
2022-08-14T21:45:55.843Z,4.35
2022-08-14T21:49:01.335Z,4.50
2022-08-14T21:52:49.408Z,4.35
2022-08-14T21:55:24.692Z,3.72
2022-08-14T21:58:53.259Z,4.33
2022-08-14T22:01:59.410Z,4.03
2022-08-14T22:04:49.985Z,4.05
2022-08-14T22:07:49.657Z,3.65
2022-08-14T22:11:00.237Z,4.03
2022-08-14T22:14:26.228Z,4.30
2022-08-14T22:17:16.196Z,4.00
2022-08-14T22:20:22.820Z,4.00
2022-08-14T22:23:28.415Z,3.45
2022-08-14T22:26:35.392Z,4.25
2022-08-14T22:29:44.241Z,3.72
2022-08-14T22:32:57.394Z,4.15
2022-08-14T22:35:58.799Z,4.20
2022-08-14T22:39:04.480Z,3.83
2022-08-14T22:42:21.148Z,3.10
2022-08-14T22:45:21.719Z,4.35
2022-08-14T22:48:29.481Z,3.70
2022-08-14T22:51:40.642Z,4.00
2022-08-14T22:54:52.520Z,4.30
2022-08-14T22:57:49.916Z,4.15
2022-08-14T23:00:55.667Z,3.92
2022-08-14T23:04:01.379Z,3.77
2022-08-14T23:07:22.099Z,3.60
2022-08-14T23:10:33.411Z,3.72
2022-08-14T23:13:30.724Z,3.83
2022-08-14T23:16:35.696Z,4.10
2022-08-14T23:19:41.579Z,3.75
2022-08-14T23:22:48.347Z,3.72
2022-08-14T23:25:59.892Z,4.30
2022-08-14T23:29:03.605Z,3.33
2022-08-14T23:32:15.690Z,4.30
2022-08-14T23:35:20.907Z,4.50
2022-08-14T23:38:30.592Z,4.40
2022-08-14T23:41:45.874Z,3.90
2022-08-14T23:44:45.830Z,3.40
2022-08-14T23:47:51.888Z,3.58
2022-08-14T23:50:57.450Z,3.58
2022-08-14T23:54:06.276Z,4.15
2022-08-14T23:57:13.601Z,4.27
